ARG1862 SABE-SAWG
Flight info
| Callsign | ARG1862 |
|---|---|
| Flight time | 1h 1m |
| Altitude | 34000 |
| Route | PTA8 GBE UZ117 TOGNO/N0458F360 UZ117 IRAVU IRAVU3R |
| Aircraft | B738/M-SDE2E3FGHIRWXY/LB1 |
Departure
| Time | 2026-05-08 01:35 |
|---|---|
| Airport | Aeroparque Jorge Newbery (SABE) |
Arrival
| Time | 2026-05-08 02:37 |
|---|---|
| Airport | Piloto Civil Norberto Fernández International Airport (SAWG) |
| Time | Latitude | Longitude | Altitude | Speed | Heading |
|---|---|---|---|---|---|
| 2026-05-08 01:04 | -34.55780 | -58.41289 | 25 ft | 0 kts | 36° |
| 2026-05-08 01:26 | -34.55796 | -58.41304 | 30 ft | 3 kts | 37° |
| 2026-05-08 01:26 | -34.55811 | -58.41315 | 26 ft | 4 kts | 348° |
| 2026-05-08 01:26 | -34.55827 | -58.41299 | 28 ft | 3 kts | 301° |
| 2026-05-08 01:27 | -34.55842 | -58.41271 | 30 ft | 4 kts | 301° |
| 2026-05-08 01:27 | -34.55856 | -58.41244 | 30 ft | 4 kts | 301° |
| 2026-05-08 01:27 | -34.55870 | -58.41216 | 30 ft | 3 kts | 301° |
| 2026-05-08 01:27 | -34.55872 | -58.41213 | 30 ft | 0 kts | 301° |
| 2026-05-08 01:30 | -34.55870 | -58.41216 | 30 ft | 3 kts | 301° |
| 2026-05-08 01:30 | -34.55863 | -58.41271 | 30 ft | 10 kts | 249° |
| 2026-05-08 01:30 | -34.55919 | -58.41300 | 28 ft | 9 kts | 158° |
| 2026-05-08 01:30 | -34.55961 | -58.41241 | 28 ft | 9 kts | 128° |
| 2026-05-08 01:31 | -34.55999 | -58.41181 | 26 ft | 9 kts | 126° |
| 2026-05-08 01:31 | -34.56035 | -58.41122 | 27 ft | 9 kts | 128° |
| 2026-05-08 01:31 | -34.56071 | -58.41065 | 24 ft | 8 kts | 128° |
| 2026-05-08 01:31 | -34.56107 | -58.41010 | 25 ft | 8 kts | 127° |
| 2026-05-08 01:32 | -34.56147 | -58.40937 | 26 ft | 13 kts | 121° |
| 2026-05-08 01:32 | -34.56187 | -58.40819 | 26 ft | 15 kts | 110° |
| 2026-05-08 01:32 | -34.56240 | -58.40708 | 28 ft | 15 kts | 123° |
| 2026-05-08 01:32 | -34.56295 | -58.40608 | 28 ft | 14 kts | 126° |
| 2026-05-08 01:33 | -34.56354 | -58.40535 | 27 ft | 11 kts | 137° |
| 2026-05-08 01:33 | -34.56408 | -58.40475 | 28 ft | 10 kts | 137° |
| 2026-05-08 01:33 | -34.56462 | -58.40417 | 24 ft | 10 kts | 138° |
| 2026-05-08 01:33 | -34.56523 | -58.40389 | 27 ft | 10 kts | 195° |
| 2026-05-08 01:34 | -34.56554 | -58.40448 | 26 ft | 10 kts | 288° |
| 2026-05-08 01:34 | -34.56547 | -58.40464 | 26 ft | 1 kts | 304° |
| 2026-05-08 01:34 | -34.56439 | -58.40655 | 25 ft | 65 kts | 304° |
| 2026-05-08 01:34 | -34.56045 | -58.41363 | 26 ft | 134 kts | 304° |
| 2026-05-08 01:35 | -34.55465 | -58.42405 | 495 ft | 154 kts | 301° |
| 2026-05-08 01:35 | -34.54837 | -58.43468 | 1306 ft | 160 kts | 308° |
| 2026-05-08 01:35 | -34.53732 | -58.44125 | 1721 ft | 206 kts | 348° |
| 2026-05-08 01:35 | -34.52225 | -58.43812 | 2042 ft | 234 kts | 15° |
| 2026-05-08 01:36 | -34.50788 | -58.42708 | 2349 ft | 260 kts | 47° |
| 2026-05-08 01:36 | -34.49998 | -58.40684 | 2646 ft | 278 kts | 85° |
| 2026-05-08 01:36 | -34.50185 | -58.38358 | 3274 ft | 280 kts | 110° |
| 2026-05-08 01:36 | -34.50745 | -58.36100 | 4162 ft | 280 kts | 112° |
| 2026-05-08 01:37 | -34.51378 | -58.33883 | 5081 ft | 276 kts | 122° |
| 2026-05-08 01:37 | -34.52646 | -58.32234 | 5845 ft | 267 kts | 156° |
| 2026-05-08 01:37 | -34.54391 | -58.31600 | 6567 ft | 263 kts | 179° |
| 2026-05-08 01:37 | -34.56229 | -58.31620 | 7205 ft | 268 kts | 189° |
| 2026-05-08 01:38 | -34.58109 | -58.31842 | 7863 ft | 275 kts | 191° |
| 2026-05-08 01:38 | -34.60041 | -58.32108 | 8504 ft | 284 kts | 191° |
| 2026-05-08 01:38 | -34.62034 | -58.32385 | 9159 ft | 292 kts | 191° |
| 2026-05-08 01:38 | -34.64075 | -58.32662 | 9802 ft | 299 kts | 190° |
| 2026-05-08 01:39 | -34.66206 | -58.32947 | 10089 ft | 320 kts | 190° |
| 2026-05-08 01:39 | -34.68497 | -58.33249 | 10291 ft | 341 kts | 189° |
| 2026-05-08 01:39 | -34.70902 | -58.33556 | 10752 ft | 353 kts | 189° |
| 2026-05-08 01:39 | -34.73361 | -58.33862 | 11423 ft | 357 kts | 188° |
| 2026-05-08 01:40 | -34.75845 | -58.34166 | 12123 ft | 360 kts | 188° |
| 2026-05-08 01:40 | -34.78354 | -58.34473 | 12804 ft | 365 kts | 188° |
| 2026-05-08 01:40 | -34.80898 | -58.34784 | 13457 ft | 370 kts | 188° |
| 2026-05-08 01:40 | -34.83475 | -58.35099 | 14040 ft | 374 kts | 188° |
| 2026-05-08 01:41 | -34.86078 | -58.35418 | 14659 ft | 378 kts | 188° |
| 2026-05-08 01:41 | -34.88708 | -58.35741 | 15271 ft | 382 kts | 187° |
| 2026-05-08 01:41 | -34.90465 | -58.35957 | 15672 ft | 384 kts | 187° |
| 2026-05-08 01:41 | -34.93137 | -58.36285 | 16267 ft | 388 kts | 187° |
| 2026-05-08 01:42 | -34.95839 | -58.36618 | 16842 ft | 392 kts | 187° |
| 2026-05-08 01:42 | -34.98567 | -58.36954 | 17447 ft | 396 kts | 187° |
| 2026-05-08 01:42 | -35.01321 | -58.37294 | 18001 ft | 400 kts | 187° |
| 2026-05-08 01:42 | -35.04113 | -58.37639 | 18459 ft | 405 kts | 187° |
| 2026-05-08 01:43 | -35.06935 | -58.37988 | 18867 ft | 412 kts | 187° |
| 2026-05-08 01:43 | -35.09808 | -58.38344 | 19276 ft | 418 kts | 187° |
| 2026-05-08 01:43 | -35.12719 | -58.38705 | 19710 ft | 423 kts | 188° |
| 2026-05-08 01:43 | -35.15665 | -58.39071 | 20140 ft | 428 kts | 188° |
| 2026-05-08 01:44 | -35.18654 | -58.39442 | 20562 ft | 433 kts | 188° |
| 2026-05-08 01:44 | -35.21669 | -58.39817 | 20971 ft | 439 kts | 188° |
| 2026-05-08 01:44 | -35.24723 | -58.40197 | 21385 ft | 444 kts | 188° |
| 2026-05-08 01:44 | -35.27818 | -58.40582 | 21777 ft | 449 kts | 188° |
| 2026-05-08 01:45 | -35.30938 | -58.40971 | 22181 ft | 454 kts | 189° |
| 2026-05-08 01:45 | -35.34093 | -58.41364 | 22610 ft | 458 kts | 189° |
| 2026-05-08 01:45 | -35.37276 | -58.41760 | 23048 ft | 462 kts | 189° |
| 2026-05-08 01:45 | -35.40486 | -58.42161 | 23403 ft | 465 kts | 189° |
| 2026-05-08 01:46 | -35.43715 | -58.42564 | 23790 ft | 467 kts | 189° |
| 2026-05-08 01:46 | -35.46958 | -58.42969 | 24168 ft | 469 kts | 189° |
| 2026-05-08 01:46 | -35.50218 | -58.43376 | 24529 ft | 472 kts | 189° |
| 2026-05-08 01:46 | -35.54801 | -58.43950 | 24997 ft | 476 kts | 189° |
| 2026-05-08 01:47 | -35.68156 | -58.45627 | 26257 ft | 488 kts | 189° |
| 2026-05-08 01:47 | -35.74046 | -58.46456 | 26756 ft | 492 kts | 194° |
| 2026-05-08 01:47 | -35.77354 | -58.47489 | 27012 ft | 490 kts | 204° |
| 2026-05-08 01:48 | -35.94670 | -58.56476 | 28569 ft | 501 kts | 208° |
| 2026-05-08 01:48 | -36.07675 | -58.63166 | 29586 ft | 512 kts | 207° |
| 2026-05-08 01:48 | -36.20924 | -58.69942 | 30535 ft | 516 kts | 207° |
| 2026-05-08 01:48 | -36.34101 | -58.76725 | 31942 ft | 507 kts | 207° |
| 2026-05-08 01:49 | -36.46941 | -58.83374 | 33448 ft | 494 kts | 206° |
| 2026-05-08 01:49 | -36.54972 | -58.87547 | 34243 ft | 487 kts | 206° |
| 2026-05-08 01:49 | -36.58093 | -58.89173 | 34449 ft | 486 kts | 206° |
| 2026-05-08 01:49 | -36.61211 | -58.90799 | 34655 ft | 486 kts | 206° |
| 2026-05-08 01:50 | -36.64326 | -58.92424 | 34843 ft | 486 kts | 206° |
| 2026-05-08 01:50 | -36.67448 | -58.94053 | 35021 ft | 486 kts | 206° |
| 2026-05-08 01:50 | -36.70559 | -58.95677 | 35232 ft | 484 kts | 206° |
| 2026-05-08 01:50 | -36.73666 | -58.97299 | 35474 ft | 482 kts | 206° |
| 2026-05-08 01:51 | -36.76759 | -58.98916 | 35606 ft | 483 kts | 206° |
| 2026-05-08 01:51 | -36.80406 | -59.00825 | 35618 ft | 486 kts | 206° |
| 2026-05-08 01:51 | -37.03360 | -59.12882 | 35627 ft | 492 kts | 206° |
| 2026-05-08 01:52 | -37.23469 | -59.23514 | 35588 ft | 484 kts | 207° |
| 2026-05-08 01:52 | -37.34996 | -59.29912 | 35579 ft | 472 kts | 208° |
| 2026-05-08 01:52 | -37.46877 | -59.36621 | 35594 ft | 466 kts | 207° |
| 2026-05-08 01:53 | -37.70609 | -59.49991 | 35658 ft | 472 kts | 207° |
| 2026-05-08 01:53 | -37.90441 | -59.61233 | 35626 ft | 484 kts | 207° |
| 2026-05-08 01:54 | -38.14978 | -59.75224 | 35589 ft | 480 kts | 207° |
| 2026-05-08 01:54 | -38.39004 | -59.89031 | 35586 ft | 466 kts | 207° |
| 2026-05-08 01:55 | -38.62272 | -60.02507 | 35627 ft | 463 kts | 207° |
| 2026-05-08 01:55 | -38.85977 | -60.16331 | 35632 ft | 474 kts | 208° |
| 2026-05-08 01:56 | -39.10061 | -60.30473 | 35567 ft | 473 kts | 208° |
| 2026-05-08 01:56 | -39.33684 | -60.44451 | 35561 ft | 459 kts | 208° |
| 2026-05-08 01:57 | -39.56570 | -60.58105 | 35602 ft | 451 kts | 207° |
| 2026-05-08 01:57 | -39.74184 | -60.68595 | 35616 ft | 461 kts | 207° |
| 2026-05-08 01:58 | -39.97756 | -60.82559 | 35571 ft | 465 kts | 206° |
| 2026-05-08 01:58 | -40.20960 | -60.96443 | 35563 ft | 451 kts | 206° |
| 2026-05-08 01:59 | -40.38219 | -61.06829 | 35603 ft | 442 kts | 206° |
| 2026-05-08 01:59 | -40.60697 | -61.20449 | 35623 ft | 450 kts | 206° |
| 2026-05-08 02:00 | -40.83654 | -61.34461 | 35598 ft | 455 kts | 206° |
| 2026-05-08 02:00 | -41.06332 | -61.48406 | 35567 ft | 442 kts | 206° |
| 2026-05-08 02:01 | -41.28213 | -61.61965 | 35592 ft | 430 kts | 206° |
| 2026-05-08 02:01 | -41.49987 | -61.75560 | 35636 ft | 436 kts | 206° |
| 2026-05-08 02:02 | -41.72144 | -61.89496 | 35621 ft | 442 kts | 206° |
| 2026-05-08 02:02 | -41.94161 | -62.03450 | 35603 ft | 431 kts | 206° |
| 2026-05-08 02:03 | -42.15442 | -62.17041 | 35618 ft | 419 kts | 206° |
| 2026-05-08 02:03 | -42.36574 | -62.30640 | 35665 ft | 424 kts | 206° |
| 2026-05-08 02:04 | -42.58193 | -62.44656 | 35646 ft | 433 kts | 206° |
| 2026-05-08 02:04 | -42.79746 | -62.58736 | 35634 ft | 425 kts | 206° |
| 2026-05-08 02:05 | -43.00446 | -62.72366 | 35637 ft | 415 kts | 206° |
| 2026-05-08 02:05 | -43.10710 | -62.79880 | 35699 ft | 423 kts | 210° |
| 2026-05-08 02:06 | -43.31601 | -62.95819 | 35653 ft | 431 kts | 209° |
| 2026-05-08 02:06 | -43.52337 | -63.11625 | 35637 ft | 420 kts | 209° |
| 2026-05-08 02:07 | -43.72477 | -63.27107 | 35669 ft | 411 kts | 210° |
| 2026-05-08 02:07 | -43.92626 | -63.42721 | 35702 ft | 421 kts | 210° |
| 2026-05-08 02:08 | -44.13318 | -63.58879 | 35666 ft | 428 kts | 210° |
| 2026-05-08 02:08 | -44.33872 | -63.75059 | 35641 ft | 419 kts | 210° |
| 2026-05-08 02:09 | -44.53766 | -63.90848 | 35660 ft | 409 kts | 210° |
| 2026-05-08 02:09 | -44.73666 | -64.06770 | 35682 ft | 416 kts | 211° |
| 2026-05-08 02:10 | -44.91400 | -64.21064 | 35673 ft | 426 kts | 211° |
| 2026-05-08 02:10 | -45.02636 | -64.29968 | 35661 ft | 421 kts | 208° |
| 2026-05-08 02:11 | -45.22739 | -64.43519 | 35676 ft | 406 kts | 207° |
| 2026-05-08 02:11 | -45.43307 | -64.57649 | 35747 ft | 417 kts | 208° |
| 2026-05-08 02:12 | -45.64607 | -64.72383 | 35749 ft | 430 kts | 208° |
| 2026-05-08 02:12 | -45.85982 | -64.87300 | 35764 ft | 423 kts | 208° |
| 2026-05-08 02:13 | -46.06894 | -65.02016 | 35807 ft | 414 kts | 208° |
| 2026-05-08 02:13 | -46.27652 | -65.16758 | 35857 ft | 420 kts | 209° |
| 2026-05-08 02:14 | -46.48948 | -65.32002 | 35880 ft | 433 kts | 209° |
| 2026-05-08 02:14 | -46.70490 | -65.47558 | 35879 ft | 430 kts | 209° |
| 2026-05-08 02:15 | -46.91630 | -65.62962 | 35906 ft | 420 kts | 209° |
| 2026-05-08 02:15 | -47.12682 | -65.78449 | 35968 ft | 430 kts | 209° |
| 2026-05-08 02:16 | -47.34497 | -65.94634 | 35992 ft | 446 kts | 208° |
| 2026-05-08 02:16 | -47.56596 | -66.11185 | 35966 ft | 442 kts | 208° |
| 2026-05-08 02:17 | -47.73077 | -66.23626 | 35976 ft | 430 kts | 208° |
| 2026-05-08 02:17 | -47.94296 | -66.39787 | 36036 ft | 431 kts | 208° |
| 2026-05-08 02:18 | -48.16013 | -66.56483 | 36067 ft | 447 kts | 208° |
| 2026-05-08 02:18 | -48.38115 | -66.73634 | 36021 ft | 444 kts | 208° |
| 2026-05-08 02:19 | -48.59712 | -66.90561 | 36027 ft | 430 kts | 208° |
| 2026-05-08 02:19 | -48.80831 | -67.07275 | 36088 ft | 430 kts | 208° |
| 2026-05-08 02:20 | -49.02338 | -67.24460 | 36103 ft | 444 kts | 208° |
| 2026-05-08 02:20 | -49.20763 | -67.39316 | 36053 ft | 438 kts | 208° |
| 2026-05-08 02:21 | -49.41968 | -67.56573 | 36068 ft | 427 kts | 208° |
| 2026-05-08 02:21 | -49.63040 | -67.73892 | 36121 ft | 434 kts | 208° |
| 2026-05-08 02:22 | -49.70848 | -67.80352 | 35369 ft | 443 kts | 208° |
| 2026-05-08 02:22 | -49.79683 | -67.88013 | 33021 ft | 444 kts | 209° |
| 2026-05-08 02:22 | -49.90088 | -67.97253 | 30954 ft | 428 kts | 209° |
| 2026-05-08 02:22 | -50.00249 | -68.06266 | 28908 ft | 414 kts | 209° |
| 2026-05-08 02:23 | -50.10085 | -68.15012 | 27004 ft | 400 kts | 208° |
| 2026-05-08 02:23 | -50.15993 | -68.20288 | 25959 ft | 393 kts | 208° |
| 2026-05-08 02:23 | -50.18360 | -68.22405 | 25522 ft | 391 kts | 208° |
| 2026-05-08 02:23 | -50.20713 | -68.24513 | 25072 ft | 389 kts | 208° |
| 2026-05-08 02:24 | -50.23057 | -68.26614 | 24631 ft | 389 kts | 208° |
| 2026-05-08 02:24 | -50.25402 | -68.28720 | 24172 ft | 388 kts | 207° |
| 2026-05-08 02:24 | -50.27745 | -68.30827 | 23710 ft | 389 kts | 207° |
| 2026-05-08 02:24 | -50.34082 | -68.36541 | 22357 ft | 386 kts | 207° |
| 2026-05-08 02:25 | -50.43295 | -68.44872 | 20573 ft | 377 kts | 207° |
| 2026-05-08 02:25 | -50.52283 | -68.53042 | 18892 ft | 369 kts | 206° |
| 2026-05-08 02:25 | -50.58115 | -68.58358 | 17694 ft | 364 kts | 206° |
| 2026-05-08 02:25 | -50.69682 | -68.68954 | 15390 ft | 354 kts | 206° |
| 2026-05-08 02:26 | -50.76112 | -68.74851 | 14162 ft | 348 kts | 204° |
| 2026-05-08 02:26 | -50.77566 | -68.75835 | 13899 ft | 340 kts | 190° |
| 2026-05-08 02:26 | -50.80567 | -68.76776 | 13512 ft | 330 kts | 185° |
| 2026-05-08 02:26 | -50.89435 | -68.79358 | 11651 ft | 316 kts | 186° |
| 2026-05-08 02:27 | -50.96867 | -68.81594 | 9473 ft | 312 kts | 186° |
| 2026-05-08 02:27 | -50.98959 | -68.82236 | 9342 ft | 301 kts | 186° |
| 2026-05-08 02:27 | -51.00984 | -68.82860 | 9256 ft | 291 kts | 186° |
| 2026-05-08 02:27 | -51.05314 | -68.84188 | 8976 ft | 276 kts | 186° |
| 2026-05-08 02:28 | -51.12761 | -68.86464 | 7940 ft | 271 kts | 186° |
| 2026-05-08 02:28 | -51.20086 | -68.88714 | 6972 ft | 266 kts | 186° |
| 2026-05-08 02:28 | -51.27262 | -68.90932 | 5984 ft | 260 kts | 187° |
| 2026-05-08 02:28 | -51.33357 | -68.92818 | 5135 ft | 256 kts | 187° |
| 2026-05-08 02:29 | -51.35478 | -68.93476 | 4863 ft | 254 kts | 187° |
| 2026-05-08 02:29 | -51.37207 | -68.94011 | 4624 ft | 253 kts | 187° |
| 2026-05-08 02:29 | -51.38930 | -68.94545 | 4373 ft | 252 kts | 187° |
| 2026-05-08 02:29 | -51.40643 | -68.95077 | 4127 ft | 251 kts | 187° |
| 2026-05-08 02:30 | -51.42353 | -68.95608 | 3941 ft | 248 kts | 187° |
| 2026-05-08 02:30 | -51.44040 | -68.96132 | 3810 ft | 248 kts | 187° |
| 2026-05-08 02:30 | -51.45741 | -68.96659 | 3634 ft | 250 kts | 187° |
| 2026-05-08 02:30 | -51.47450 | -68.97191 | 3426 ft | 249 kts | 187° |
| 2026-05-08 02:31 | -51.49134 | -68.97716 | 3209 ft | 244 kts | 187° |
| 2026-05-08 02:31 | -51.50787 | -68.98233 | 2985 ft | 240 kts | 187° |
| 2026-05-08 02:31 | -51.52402 | -68.98822 | 2773 ft | 237 kts | 191° |
| 2026-05-08 02:31 | -51.53970 | -68.99539 | 2599 ft | 230 kts | 192° |
| 2026-05-08 02:32 | -51.55474 | -69.00241 | 2383 ft | 221 kts | 191° |
| 2026-05-08 02:32 | -51.56923 | -69.00911 | 2227 ft | 211 kts | 191° |
| 2026-05-08 02:32 | -51.58283 | -69.01570 | 2180 ft | 197 kts | 198° |
| 2026-05-08 02:32 | -51.59277 | -69.02978 | 2181 ft | 192 kts | 238° |
| 2026-05-08 02:33 | -51.59585 | -69.05086 | 2218 ft | 195 kts | 257° |
| 2026-05-08 02:33 | -51.59754 | -69.07260 | 2196 ft | 196 kts | 259° |
| 2026-05-08 02:33 | -51.59870 | -69.09445 | 2183 ft | 196 kts | 260° |
| 2026-05-08 02:33 | -51.59969 | -69.11623 | 2181 ft | 195 kts | 261° |
| 2026-05-08 02:34 | -51.60068 | -69.13809 | 1977 ft | 194 kts | 260° |
| 2026-05-08 02:34 | -51.60162 | -69.15902 | 1715 ft | 182 kts | 259° |
| 2026-05-08 02:34 | -51.60251 | -69.17833 | 1473 ft | 166 kts | 258° |
| 2026-05-08 02:34 | -51.60336 | -69.19644 | 1248 ft | 161 kts | 258° |
| 2026-05-08 02:35 | -51.60419 | -69.21423 | 1014 ft | 157 kts | 258° |
| 2026-05-08 02:35 | -51.60501 | -69.23168 | 782 ft | 155 kts | 258° |
| 2026-05-08 02:35 | -51.60580 | -69.24867 | 576 ft | 149 kts | 258° |
| 2026-05-08 02:35 | -51.60656 | -69.26476 | 372 ft | 144 kts | 260° |
| 2026-05-08 02:36 | -51.60739 | -69.28112 | 151 ft | 146 kts | 263° |
| 2026-05-08 02:36 | -51.60809 | -69.29705 | 50 ft | 134 kts | 266° |
| 2026-05-08 02:36 | -51.60867 | -69.30870 | 50 ft | 74 kts | 266° |
| 2026-05-08 02:36 | -51.60903 | -69.31584 | 50 ft | 59 kts | 265° |
| 2026-05-08 02:37 | -51.60930 | -69.32111 | 50 ft | 36 kts | 265° |
| 2026-05-08 02:37 | -51.60947 | -69.32350 | 48 ft | 12 kts | 245° |
| 2026-05-08 02:37 | -51.60986 | -69.32403 | 50 ft | 0 kts | 197° |
| 2026-05-08 02:37 | -51.60989 | -69.32402 | 46 ft | 2 kts | 175° |
| 2026-05-08 02:38 | -51.61035 | -69.32391 | 49 ft | 11 kts | 172° |
| 2026-05-08 02:38 | -51.61110 | -69.32330 | 49 ft | 16 kts | 118° |
| 2026-05-08 02:38 | -51.61112 | -69.32104 | 49 ft | 23 kts | 85° |
| 2026-05-08 02:38 | -51.61100 | -69.31847 | 49 ft | 23 kts | 86° |
| 2026-05-08 02:39 | -51.61090 | -69.31601 | 49 ft | 22 kts | 85° |
| 2026-05-08 02:39 | -51.61078 | -69.31356 | 49 ft | 21 kts | 85° |
| 2026-05-08 02:39 | -51.61067 | -69.31120 | 49 ft | 21 kts | 86° |
| 2026-05-08 02:39 | -51.61057 | -69.30892 | 47 ft | 20 kts | 86° |
| 2026-05-08 02:40 | -51.61048 | -69.30704 | 49 ft | 11 kts | 85° |
| 2026-05-08 02:40 | -51.61066 | -69.30593 | 49 ft | 11 kts | 127° |
| 2026-05-08 02:40 | -51.61113 | -69.30505 | 49 ft | 10 kts | 131° |
| 2026-05-08 02:40 | -51.61159 | -69.30423 | 49 ft | 6 kts | 137° |
| 2026-05-08 02:41 | -51.61165 | -69.30417 | 47 ft | 1 kts | 157° |
| 2026-05-08 02:41 | -51.61177 | -69.30421 | 49 ft | 0 kts | 205° |
| 2026-05-08 02:41 | -51.61182 | -69.30427 | 49 ft | 0 kts | 224° |
| 2026-05-08 02:41 | -51.61183 | -69.30444 | 48 ft | 2 kts | 267° |
| 2026-05-08 02:42 | -51.61183 | -69.30446 | 48 ft | 0 kts | 268° |
| 2026-05-08 02:43 | -51.61185 | -69.30445 | 48 ft | 0 kts | 271° |